Athens, Maine
Current Conditions -  °F | °C
As of 7:35 AM on Wednesday 26 Nov 2014 (Local Time) from KWVL Reporting Station
Clear Clear  
Wind Chill: 34°   Ceiling: Unl
Heat Index: 39°   Visibility: 10mi
Dew Point: 19°   Wind: 8mph
Humidity: 45%   Direction: 310°NW
Pressure: 30.17"   Gusts: NA
Location:  44.92°N, 69.67°W
Report Text: KWVL 261235Z 31007KT 10SM CLR 04/M07 A3017 RMK AO1
Loading
Personal Weather Stations






























Interactive Weather Map New forecast layout! Learn more

10-Day Weather Forecast

Advertisements
Track Severe Weather on mobile